aviador You're here:

KCVW Decoded Metar

in
Report Time2017-04-30 14:35:00
UTC Time2017-04-30 14:55:08
Flight Rules vfr VFR
Wind360° at 08 kt
Visibility9999 m
Phenomena:N/A
Clouds:Few 065 Hf
Expected CloudBase > 2,000 ft AGL from Temp-Dew spread
CeilingNone
Temp19°C
Dew Point14°C (73% RH)
AAT17.4°C
QNH1010 hPa
Raw Report
KCVW 301435Z AUTO 36008KT 10SM FEW065 19/14 A2984 RMK A01=

Extra information for KCVW:More info

Social comments